createdAt,value
2019-03-27T00:01:14.695Z,99285.42
2019-03-27T00:03:44.043Z,99289.85
2019-03-27T00:06:13.727Z,99291.75
2019-03-27T00:08:43.353Z,99286.51
2019-03-27T00:11:16.383Z,99287.42
2019-03-27T00:14:10.738Z,99283.84
2019-03-27T00:16:40.080Z,99289.89
2019-03-27T00:19:09.710Z,99284.37
2019-03-27T00:21:39.315Z,99289.33
2019-03-27T00:24:08.939Z,99285.42
2019-03-27T00:26:38.534Z,99289.63
2019-03-27T00:29:07.884Z,99283.36
2019-03-27T00:31:37.556Z,99284.14
2019-03-27T00:34:06.902Z,99278.66
2019-03-27T00:36:36.237Z,99281.91
2019-03-27T00:39:45.557Z,99280.51
2019-03-27T00:42:15.191Z,99278.85
2019-03-27T00:44:44.802Z,99278.89
2019-03-27T00:47:16.045Z,99281.33
2019-03-27T00:49:45.615Z,99279.97
2019-03-27T00:52:15.257Z,99284.12
2019-03-27T00:54:44.869Z,99281.64
2019-03-27T00:57:14.293Z,99283.77
2019-03-27T00:59:43.875Z,99276.31
2019-03-27T01:02:13.488Z,99280.17
2019-03-27T01:04:42.830Z,99278.80
2019-03-27T01:07:12.496Z,99279.08
2019-03-27T01:09:42.102Z,99282.11
2019-03-27T01:12:11.706Z,99283.98
2019-03-27T01:14:41.037Z,99282.40
2019-03-27T01:17:16.262Z,99275.53
2019-03-27T01:19:45.841Z,99270.83
2019-03-27T01:22:15.178Z,99271.63
2019-03-27T01:24:44.865Z,99272.20
2019-03-27T01:27:14.199Z,99272.47
2019-03-27T01:29:43.543Z,99273.03
2019-03-27T01:32:12.903Z,99266.73
2019-03-27T01:34:42.484Z,99267.73
2019-03-27T01:37:11.830Z,99273.70
2019-03-27T01:39:41.188Z,99273.48
2019-03-27T01:42:10.578Z,99263.43
2019-03-27T01:44:40.151Z,99257.66
2019-03-27T01:47:09.503Z,99254.06
2019-03-27T01:49:39.098Z,99255.19
2019-03-27T01:52:08.589Z,99258.77
2019-03-27T01:54:38.166Z,99252.70
2019-03-27T01:57:07.573Z,99252.94
2019-03-27T01:59:37.051Z,99252.45
2019-03-27T02:02:06.391Z,99253.48
2019-03-27T02:04:36.277Z,99257.32
2019-03-27T02:07:05.842Z,99249.34
2019-03-27T02:09:35.303Z,99253.86
2019-03-27T02:12:04.652Z,99260.06
2019-03-27T02:14:33.956Z,99254.84
2019-03-27T02:17:03.304Z,99260.30
2019-03-27T02:19:37.995Z,99256.75
2019-03-27T02:25:41.611Z,99263.14
2019-03-27T02:28:10.952Z,99256.87
2019-03-27T02:30:52.100Z,99253.80
2019-03-27T02:33:21.509Z,99251.27
2019-03-27T02:35:51.088Z,99256.70
2019-03-27T02:38:20.697Z,99256.14
2019-03-27T02:40:50.018Z,99256.20
2019-03-27T02:43:32.237Z,99254.34
2019-03-27T02:46:01.669Z,99256.73
2019-03-27T02:48:30.976Z,99253.78
2019-03-27T02:51:00.306Z,99257.17
2019-03-27T02:53:29.637Z,99257.32
2019-03-27T02:55:58.971Z,99257.61
2019-03-27T02:58:28.289Z,99264.17
2019-03-27T03:00:57.618Z,99266.32
2019-03-27T03:03:26.954Z,99271.04
2019-03-27T03:05:56.282Z,99268.74
2019-03-27T03:08:25.623Z,99273.41
2019-03-27T03:10:54.967Z,99271.26
2019-03-27T03:13:43.381Z,99267.10
2019-03-27T03:16:12.722Z,99262.58
2019-03-27T03:18:42.065Z,99269.35
2019-03-27T03:21:11.393Z,99263.72
2019-03-27T03:23:59.827Z,99256.51
2019-03-27T03:26:29.153Z,99256.30
2019-03-27T03:28:58.495Z,99250.83
2019-03-27T03:31:39.597Z,99250.24
2019-03-27T03:34:08.927Z,99257.59
2019-03-27T03:36:57.589Z,99251.59
2019-03-27T03:39:26.928Z,99251.59
2019-03-27T03:41:56.275Z,99251.27
2019-03-27T03:44:25.596Z,99261.70
2019-03-27T03:46:59.899Z,99266.00
2019-03-27T03:49:45.060Z,99256.28
2019-03-27T03:52:14.607Z,99262.80
2019-03-27T03:54:43.951Z,99264.46
2019-03-27T04:00:47.359Z,99266.86
2019-03-27T04:03:29.126Z,99263.69
2019-03-27T04:05:58.642Z,99267.66
2019-03-27T04:08:28.020Z,99269.13
2019-03-27T04:10:57.415Z,99271.20
2019-03-27T04:13:26.752Z,99272.09
2019-03-27T04:15:56.086Z,99265.69
2019-03-27T04:18:25.421Z,99271.31
2019-03-27T04:20:54.743Z,99269.08
2019-03-27T04:23:24.172Z,99279.72
2019-03-27T04:26:09.076Z,99282.91
2019-03-27T04:28:34.005Z,99281.30
2019-03-27T04:31:15.262Z,99281.92
2019-03-27T04:33:44.607Z,99276.15
2019-03-27T04:36:13.968Z,99274.45
2019-03-27T04:38:55.384Z,99271.99
2019-03-27T04:41:24.707Z,99269.48
2019-03-27T04:43:54.043Z,99275.61
2019-03-27T04:46:23.373Z,99272.84
2019-03-27T04:48:52.698Z,99264.93
2019-03-27T04:51:22.021Z,99267.66
2019-03-27T04:53:51.617Z,99269.94
2019-03-27T04:56:20.939Z,99269.63
2019-03-27T04:58:50.278Z,99278.83
2019-03-27T05:01:19.947Z,99270.73
2019-03-27T05:07:13.746Z,99270.11
2019-03-27T05:09:42.206Z,99282.45
2019-03-27T05:12:11.548Z,99282.14
2019-03-27T05:14:40.876Z,99290.89
2019-03-27T05:17:10.201Z,99285.36
2019-03-27T05:19:39.540Z,99295.38
2019-03-27T05:22:08.864Z,99291.80
2019-03-27T05:24:43.535Z,99293.36
2019-03-27T05:27:12.870Z,99291.04
2019-03-27T05:29:42.202Z,99301.42
2019-03-27T05:32:11.534Z,99300.33
2019-03-27T05:34:41.149Z,99306.45
2019-03-27T05:37:10.758Z,99306.45
2019-03-27T05:39:40.102Z,99300.98
2019-03-27T05:42:28.846Z,99310.27
2019-03-27T05:44:58.189Z,99308.84
2019-03-27T05:47:27.518Z,99313.24
2019-03-27T05:49:56.847Z,99319.82
2019-03-27T05:52:26.194Z,99321.75
2019-03-27T05:55:07.619Z,99329.17
2019-03-27T05:57:36.954Z,99328.91
2019-03-27T06:03:40.073Z,99333.58
2019-03-27T06:06:09.405Z,99330.86
2019-03-27T06:08:38.729Z,99338.28
2019-03-27T06:11:08.082Z,99331.88
2019-03-27T06:13:37.415Z,99333.37
2019-03-27T06:16:06.738Z,99331.06
2019-03-27T06:18:36.089Z,99331.25
2019-03-27T06:21:05.435Z,99340.63
2019-03-27T06:23:34.763Z,99345.27
2019-03-27T06:26:04.260Z,99341.08
2019-03-27T06:28:33.590Z,99337.05
2019-03-27T06:31:02.914Z,99346.24
2019-03-27T06:33:32.250Z,99344.42
2019-03-27T06:36:01.606Z,99336.32
2019-03-27T06:38:30.929Z,99341.14
2019-03-27T06:41:00.265Z,99343.89
2019-03-27T06:43:29.591Z,99337.07
2019-03-27T06:45:58.924Z,99346.63
2019-03-27T06:48:28.258Z,99341.86
2019-03-27T06:50:57.663Z,99334.33
2019-03-27T06:53:27.000Z,99347.12
2019-03-27T06:55:56.327Z,99348.60
2019-03-27T06:58:25.891Z,99348.83
2019-03-27T07:00:55.224Z,99346.17
2019-03-27T07:03:24.550Z,99348.16
2019-03-27T07:05:53.885Z,99354.15
2019-03-27T07:08:23.210Z,99360.83
2019-03-27T07:10:52.541Z,99359.09
2019-03-27T07:13:21.889Z,99365.61
2019-03-27T07:15:51.214Z,99373.23
2019-03-27T07:18:20.559Z,99372.45
2019-03-27T07:20:49.883Z,99376.06
2019-03-27T07:23:19.210Z,99384.17
2019-03-27T07:26:07.885Z,99377.59
2019-03-27T07:28:43.042Z,99376.30
2019-03-27T07:31:12.374Z,99376.61
2019-03-27T07:33:41.703Z,99377.97
2019-03-27T07:36:11.030Z,99378.26
2019-03-27T07:38:40.362Z,99381.31
2019-03-27T07:41:09.691Z,99378.58
2019-03-27T07:43:39.026Z,99374.67
2019-03-27T07:46:08.350Z,99381.25
2019-03-27T07:48:37.971Z,99378.62
2019-03-27T07:51:07.303Z,99377.52
2019-03-27T07:53:36.631Z,99380.81
2019-03-27T07:56:06.278Z,99388.27
2019-03-27T07:58:35.603Z,99392.70
2019-03-27T08:01:04.925Z,99390.78
2019-03-27T08:03:34.589Z,99391.00
2019-03-27T08:06:03.922Z,99394.78
2019-03-27T08:08:33.259Z,99391.07
2019-03-27T08:11:02.646Z,99398.91
2019-03-27T08:13:31.913Z,99403.04
2019-03-27T08:16:01.248Z,99402.55
2019-03-27T08:18:30.574Z,99405.89
2019-03-27T08:21:05.630Z,99400.68
2019-03-27T08:23:34.964Z,99403.14
2019-03-27T08:26:04.301Z,99401.21
2019-03-27T08:28:39.118Z,99411.39
2019-03-27T08:31:08.468Z,99408.06
2019-03-27T08:33:37.790Z,99406.13
2019-03-27T08:36:07.122Z,99404.52
2019-03-27T08:38:36.454Z,99399.39
2019-03-27T08:41:05.791Z,99396.31
2019-03-27T08:43:35.116Z,99398.04
2019-03-27T08:46:04.443Z,99401.85
2019-03-27T08:48:33.791Z,99399.19
2019-03-27T08:51:03.119Z,99395.52
2019-03-27T08:53:34.422Z,99403.05
2019-03-27T08:56:03.817Z,99405.01
2019-03-27T08:58:33.153Z,99399.18
2019-03-27T09:01:02.842Z,99407.88
2019-03-27T09:03:32.176Z,99412.92
2019-03-27T09:06:01.506Z,99404.73
2019-03-27T09:08:30.832Z,99412.73
2019-03-27T09:11:00.448Z,99416.56
2019-03-27T09:13:29.771Z,99413.95
2019-03-27T09:15:59.110Z,99420.34
2019-03-27T09:18:47.785Z,99421.18
2019-03-27T09:21:17.122Z,99423.05
2019-03-27T09:23:46.449Z,99421.13
2019-03-27T09:26:15.787Z,99412.55
2019-03-27T09:28:45.118Z,99406.34
2019-03-27T09:31:19.668Z,99410.34
2019-03-27T09:33:49.023Z,99414.50
2019-03-27T09:36:18.351Z,99417.24
2019-03-27T09:38:47.685Z,99424.02
2019-03-27T09:41:17.031Z,99416.05
2019-03-27T09:43:46.643Z,99421.27
2019-03-27T09:46:17.624Z,99416.48
2019-03-27T09:48:46.952Z,99418.20
2019-03-27T09:51:16.291Z,99410.92
2019-03-27T09:53:45.631Z,99415.19
2019-03-27T09:56:34.291Z,99411.28
2019-03-27T09:59:06.033Z,99402.86
2019-03-27T10:01:53.823Z,99409.88
2019-03-27T10:04:42.506Z,99405.47
2019-03-27T10:07:11.827Z,99401.72
2019-03-27T10:09:41.168Z,99403.55
2019-03-27T10:12:10.502Z,99397.35
2019-03-27T10:14:39.834Z,99402.09
2019-03-27T10:17:09.176Z,99404.48
2019-03-27T10:19:38.678Z,99402.00
2019-03-27T10:22:08.021Z,99396.53
2019-03-27T10:24:37.363Z,99392.88
2019-03-27T10:27:06.697Z,99393.16
2019-03-27T10:29:36.024Z,99390.30
2019-03-27T10:32:11.095Z,99396.12
2019-03-27T10:34:40.427Z,99396.81
2019-03-27T10:37:09.764Z,99378.84
2019-03-27T10:39:39.090Z,99398.66
2019-03-27T10:42:20.883Z,99391.20
2019-03-27T10:44:50.211Z,99391.30
2019-03-27T10:47:19.543Z,99392.46
2019-03-27T10:49:48.884Z,99394.98
2019-03-27T10:52:18.220Z,99399.98
2019-03-27T10:54:59.416Z,99393.69
2019-03-27T10:57:29.027Z,99394.81
2019-03-27T10:59:58.366Z,99397.66
2019-03-27T11:02:27.697Z,99389.47
2019-03-27T11:04:57.027Z,99400.70
2019-03-27T11:07:26.367Z,99401.70
2019-03-27T11:09:55.696Z,99402.31
2019-03-27T11:12:25.028Z,99401.38
2019-03-27T11:14:54.365Z,99393.28
2019-03-27T11:17:23.698Z,99398.70
2019-03-27T11:19:53.043Z,99395.18
2019-03-27T11:22:22.374Z,99400.02
2019-03-27T11:24:51.705Z,99395.52
2019-03-27T11:27:21.035Z,99389.88
2019-03-27T11:29:50.366Z,99391.80
2019-03-27T11:32:19.836Z,99394.73
2019-03-27T11:34:49.164Z,99397.97
2019-03-27T11:37:18.836Z,99389.07
2019-03-27T11:39:48.167Z,99387.84
2019-03-27T11:42:17.501Z,99390.89
2019-03-27T11:44:46.839Z,99388.22
2019-03-27T11:47:16.168Z,99396.97
2019-03-27T11:49:45.499Z,99387.94
2019-03-27T11:52:15.173Z,99388.27
2019-03-27T11:54:44.503Z,99385.38
2019-03-27T11:57:13.842Z,99380.58
2019-03-27T11:59:53.339Z,99387.64
2019-03-27T12:02:20.054Z,99379.27
2019-03-27T12:04:49.388Z,99385.83
2019-03-27T12:07:18.713Z,99382.89
2019-03-27T12:09:48.051Z,99384.43
2019-03-27T12:12:17.386Z,99385.00
2019-03-27T12:14:47.070Z,99389.80
2019-03-27T12:17:16.479Z,99385.66
2019-03-27T12:19:45.814Z,99378.23
2019-03-27T12:22:15.484Z,99379.97
2019-03-27T12:24:46.464Z,99374.16
2019-03-27T12:27:15.796Z,99373.23
2019-03-27T12:29:45.131Z,99374.34
2019-03-27T12:32:14.474Z,99373.06
2019-03-27T12:34:43.819Z,99368.63
2019-03-27T12:37:13.150Z,99371.73
2019-03-27T12:39:42.714Z,99372.64
2019-03-27T12:42:12.056Z,99374.05
2019-03-27T12:44:41.388Z,99375.08
2019-03-27T12:47:10.790Z,99369.49
2019-03-27T12:49:40.127Z,99370.83
2019-03-27T12:52:22.104Z,99367.97
2019-03-27T12:55:03.532Z,99367.97
2019-03-27T12:57:32.859Z,99366.95
2019-03-27T13:00:02.195Z,99354.61
2019-03-27T13:02:31.526Z,99374.39
2019-03-27T13:05:00.855Z,99365.54
2019-03-27T13:07:30.195Z,99365.22
2019-03-27T13:09:59.523Z,99372.16
2019-03-27T13:12:28.859Z,99364.28
2019-03-27T13:14:58.197Z,99363.28
2019-03-27T13:17:27.528Z,99360.13
2019-03-27T13:20:08.815Z,99362.78
2019-03-27T13:22:38.619Z,99362.78
2019-03-27T13:28:16.366Z,99355.61
2019-03-27T13:30:45.710Z,99357.14
2019-03-27T13:33:15.045Z,99356.53
2019-03-27T13:35:50.225Z,99358.21
2019-03-27T13:38:19.566Z,99353.76
2019-03-27T13:40:48.892Z,99348.77
2019-03-27T13:43:18.241Z,99355.34
2019-03-27T13:45:47.566Z,99359.88
2019-03-27T13:48:17.197Z,99356.14
2019-03-27T13:50:46.535Z,99352.33
2019-03-27T13:53:16.207Z,99347.88
2019-03-27T13:55:45.547Z,99344.48
2019-03-27T13:58:16.515Z,99338.31
2019-03-27T14:01:05.193Z,99342.77
2019-03-27T14:03:46.263Z,99344.10
2019-03-27T14:06:28.196Z,99335.59
2019-03-27T14:08:57.530Z,99335.59
2019-03-27T14:11:26.864Z,99328.45
2019-03-27T14:13:56.199Z,99332.90
2019-03-27T14:16:25.534Z,99333.11
2019-03-27T14:18:54.874Z,99329.84
2019-03-27T14:21:24.203Z,99328.64
2019-03-27T14:23:53.890Z,99326.62
2019-03-27T14:26:23.223Z,99329.58
2019-03-27T14:28:52.555Z,99322.97
2019-03-27T14:31:21.895Z,99321.36
2019-03-27T14:33:51.225Z,99326.91
2019-03-27T14:36:20.666Z,99321.92
2019-03-27T14:38:49.996Z,99322.52
2019-03-27T14:41:19.323Z,99317.44
2019-03-27T14:43:48.670Z,99328.00
2019-03-27T14:46:18.000Z,99314.70
2019-03-27T14:48:47.335Z,99313.88
2019-03-27T14:51:16.662Z,99314.55
2019-03-27T14:53:46.001Z,99317.68
2019-03-27T14:56:15.410Z,99320.55
2019-03-27T14:58:44.734Z,99321.63
2019-03-27T15:01:14.144Z,99325.42
2019-03-27T15:04:02.807Z,99322.92
2019-03-27T15:06:32.147Z,99324.02
2019-03-27T15:09:01.470Z,99327.76
2019-03-27T15:11:30.799Z,99327.73
2019-03-27T15:14:06.012Z,99324.90
2019-03-27T15:16:35.352Z,99325.86
2019-03-27T15:19:04.759Z,99330.48
2019-03-27T15:21:34.095Z,99330.59
2019-03-27T15:24:15.566Z,99329.17
2019-03-27T15:26:44.896Z,99331.83
2019-03-27T15:29:14.220Z,99331.88
2019-03-27T15:31:43.564Z,99331.25
2019-03-27T15:34:12.895Z,99329.47
2019-03-27T15:36:48.146Z,99336.63
2019-03-27T15:39:19.118Z,99332.76
2019-03-27T15:41:48.444Z,99327.61
2019-03-27T15:44:17.766Z,99326.88
2019-03-27T15:46:47.105Z,99332.59
2019-03-27T15:49:16.429Z,99322.55
2019-03-27T15:51:45.767Z,99330.73
2019-03-27T15:54:15.093Z,99330.33
2019-03-27T15:56:44.426Z,99325.98
2019-03-27T15:59:13.760Z,99322.73
2019-03-27T16:01:43.082Z,99318.41
2019-03-27T16:04:12.405Z,99323.44
2019-03-27T16:06:41.737Z,99319.08
2019-03-27T16:12:20.234Z,99323.64
2019-03-27T16:14:49.559Z,99327.41
2019-03-27T16:17:18.887Z,99326.66
2019-03-27T16:19:48.222Z,99328.36
2019-03-27T16:22:17.555Z,99326.20
2019-03-27T16:24:46.884Z,99328.70
2019-03-27T16:27:16.216Z,99331.05
2019-03-27T16:29:45.541Z,99330.73
2019-03-27T16:32:14.871Z,99337.07
2019-03-27T16:34:44.206Z,99335.28
2019-03-27T16:37:13.546Z,99336.02
2019-03-27T16:39:42.874Z,99330.78
2019-03-27T16:42:12.212Z,99336.98
2019-03-27T16:44:41.539Z,99339.58
2019-03-27T16:47:10.930Z,99346.56
2019-03-27T16:49:40.269Z,99345.73
2019-03-27T16:52:11.299Z,99344.90
2019-03-27T16:54:40.636Z,99354.00
2019-03-27T16:57:09.962Z,99351.09
2019-03-27T16:59:51.435Z,99356.70
2019-03-27T17:02:20.759Z,99353.95
2019-03-27T17:04:50.087Z,99351.32
2019-03-27T17:07:19.417Z,99353.84
2019-03-27T17:09:48.732Z,99353.71
2019-03-27T17:12:18.065Z,99353.34
2019-03-27T17:14:47.393Z,99362.69
2019-03-27T17:17:16.722Z,99361.59
2019-03-27T17:19:46.046Z,99365.92
2019-03-27T17:22:19.830Z,99370.41
2019-03-27T17:28:28.886Z,99373.12
2019-03-27T17:31:17.907Z,99378.95
2019-03-27T17:33:47.244Z,99377.84
2019-03-27T17:36:16.586Z,99381.58
2019-03-27T17:38:45.911Z,99382.36
2019-03-27T17:41:53.656Z,99384.89
2019-03-27T17:44:22.986Z,99388.31
2019-03-27T17:46:52.310Z,99385.97
2019-03-27T17:49:21.645Z,99385.38
2019-03-27T17:51:50.974Z,99387.34
2019-03-27T17:54:21.097Z,99392.09
2019-03-27T17:57:10.426Z,99393.77
2019-03-27T17:59:39.767Z,99395.48
2019-03-27T18:02:09.250Z,99391.90
2019-03-27T18:04:38.818Z,99397.41
2019-03-27T18:07:08.147Z,99391.07
2019-03-27T18:09:37.475Z,99402.67
2019-03-27T18:12:06.802Z,99406.81
2019-03-27T18:14:37.773Z,99403.51
2019-03-27T18:17:08.730Z,99407.36
2019-03-27T18:19:39.712Z,99409.06
2019-03-27T18:22:09.062Z,99407.39
2019-03-27T18:24:40.034Z,99412.11
2019-03-27T18:27:09.349Z,99413.78
2019-03-27T18:29:40.319Z,99410.48
2019-03-27T18:32:09.643Z,99414.87
2019-03-27T18:34:39.045Z,99413.53
2019-03-27T18:37:08.373Z,99418.75
2019-03-27T18:39:37.771Z,99425.89
2019-03-27T18:42:07.102Z,99430.31
2019-03-27T18:44:36.421Z,99430.06
2019-03-27T18:47:05.751Z,99435.06
2019-03-27T18:49:35.348Z,99436.66
2019-03-27T18:52:06.311Z,99441.95
2019-03-27T18:54:54.735Z,99438.68
2019-03-27T18:57:24.088Z,99452.45
2019-03-27T18:59:55.081Z,99454.69
2019-03-27T19:02:24.444Z,99458.58
2019-03-27T19:04:53.780Z,99459.96
2019-03-27T19:07:23.163Z,99460.78
2019-03-27T19:09:52.537Z,99460.23
2019-03-27T19:12:21.969Z,99455.34
2019-03-27T19:14:51.319Z,99461.93
2019-03-27T19:17:20.729Z,99469.09
2019-03-27T19:19:50.067Z,99474.89
2019-03-27T19:22:19.457Z,99467.19
2019-03-27T19:28:28.404Z,99469.65
2019-03-27T19:30:57.855Z,99473.51
2019-03-27T19:33:27.262Z,99471.90
2019-03-27T19:35:56.648Z,99474.62
2019-03-27T19:38:26.032Z,99476.84
2019-03-27T19:40:55.439Z,99483.16
2019-03-27T19:43:24.831Z,99482.31
2019-03-27T19:45:57.289Z,99481.52
2019-03-27T19:48:56.898Z,99480.97
2019-03-27T19:51:26.309Z,99485.91
2019-03-27T19:53:55.677Z,99482.07
2019-03-27T19:56:25.127Z,99479.02
2019-03-27T19:58:54.524Z,99483.17
2019-03-27T20:01:23.913Z,99486.48
2019-03-27T20:03:53.338Z,99488.94
2019-03-27T20:06:22.730Z,99490.86
2019-03-27T20:08:52.128Z,99498.30
2019-03-27T20:11:21.518Z,99488.66
2019-03-27T20:13:50.911Z,99493.34
2019-03-27T20:16:21.939Z,99497.19
2019-03-27T20:18:51.364Z,99499.38
2019-03-27T20:21:21.032Z,99500.23
2019-03-27T20:23:50.387Z,99500.48
2019-03-27T20:26:19.722Z,99508.73
2019-03-27T20:28:49.060Z,99502.16
2019-03-27T20:31:18.439Z,99497.45
2019-03-27T20:33:47.806Z,99501.84
2019-03-27T20:36:17.170Z,99499.09
2019-03-27T20:38:46.562Z,99493.02
2019-03-27T20:41:16.231Z,99493.73
2019-03-27T20:43:45.874Z,99489.85
2019-03-27T20:46:24.793Z,99489.84
2019-03-27T20:49:05.497Z,99491.47
2019-03-27T20:51:46.297Z,99493.89
2019-03-27T20:54:15.647Z,99493.84
2019-03-27T20:56:45.139Z,99493.55
2019-03-27T20:59:14.464Z,99494.66
2019-03-27T21:01:43.805Z,99501.17
2019-03-27T21:04:13.134Z,99492.63
2019-03-27T21:06:42.717Z,99489.84
2019-03-27T21:09:12.048Z,99495.03
2019-03-27T21:11:41.598Z,99498.86
2019-03-27T21:14:10.925Z,99496.07
2019-03-27T21:16:40.259Z,99501.23
2019-03-27T21:19:11.219Z,99506.99
2019-03-27T21:21:42.103Z,99499.81
2019-03-27T21:24:30.668Z,99504.73
2019-03-27T21:27:00.137Z,99508.55
2019-03-27T21:29:29.722Z,99509.91
2019-03-27T21:31:59.054Z,99504.38
2019-03-27T21:34:28.378Z,99504.31
2019-03-27T21:36:57.712Z,99505.98
2019-03-27T21:39:27.100Z,99507.86
2019-03-27T21:41:56.565Z,99515.21
2019-03-27T21:44:25.883Z,99513.81
2019-03-27T21:46:55.209Z,99505.55
2019-03-27T21:49:24.544Z,99510.80
2019-03-27T21:51:53.882Z,99509.66
2019-03-27T21:54:23.206Z,99514.55
2019-03-27T21:56:52.542Z,99512.83
2019-03-27T21:59:21.878Z,99513.14
2019-03-27T22:02:05.486Z,99511.16
2019-03-27T22:04:31.842Z,99510.63
2019-03-27T22:07:01.165Z,99513.03
2019-03-27T22:09:49.614Z,99514.97
2019-03-27T22:15:33.431Z,99520.07
2019-03-27T22:18:02.770Z,99522.84
2019-03-27T22:20:32.105Z,99506.41
2019-03-27T22:23:01.582Z,99516.48
2019-03-27T22:25:36.150Z,99517.86
2019-03-27T22:28:11.218Z,99517.29
2019-03-27T22:30:40.554Z,99523.26
2019-03-27T22:33:09.888Z,99522.77
2019-03-27T22:35:39.239Z,99524.71
2019-03-27T22:38:08.560Z,99526.19
2019-03-27T22:40:37.883Z,99527.52
2019-03-27T22:43:07.298Z,99522.56
2019-03-27T22:45:36.630Z,99530.69
2019-03-27T22:48:05.956Z,99524.95
2019-03-27T22:50:35.302Z,99528.70
2019-03-27T22:53:43.072Z,99523.09
2019-03-27T22:56:12.414Z,99530.25
2019-03-27T22:58:41.814Z,99530.98
2019-03-27T23:04:26.243Z,99533.66
2019-03-27T23:06:55.842Z,99535.50
2019-03-27T23:09:25.181Z,99539.83
2019-03-27T23:11:54.803Z,99538.34
2019-03-27T23:14:24.458Z,99539.50
2019-03-27T23:16:53.805Z,99545.76
2019-03-27T23:19:23.470Z,99538.40
2019-03-27T23:21:54.451Z,99542.90
2019-03-27T23:24:23.780Z,99544.88
2019-03-27T23:26:53.109Z,99543.75
2019-03-27T23:29:22.450Z,99536.39
2019-03-27T23:31:51.785Z,99547.51
2019-03-27T23:34:21.133Z,99538.67
2019-03-27T23:36:50.465Z,99539.72
2019-03-27T23:39:19.799Z,99537.52
2019-03-27T23:41:49.139Z,99536.93
2019-03-27T23:44:25.578Z,99537.89
2019-03-27T23:46:54.917Z,99542.56
2019-03-27T23:49:24.245Z,99539.19
2019-03-27T23:51:53.590Z,99540.09
2019-03-27T23:54:22.926Z,99541.82
2019-03-27T23:56:52.254Z,99540.52
2019-03-27T23:59:21.623Z,99536.90
